createdAt,value
2019-04-22T00:01:32.603Z,49.50
2019-04-22T00:04:07.013Z,45.80
2019-04-22T00:06:50.292Z,39.98
2019-04-22T00:09:24.174Z,39.67
2019-04-22T00:12:01.867Z,31.63
2019-04-22T00:14:24.534Z,27.17
2019-04-22T00:16:58.601Z,19.67
2019-04-22T00:19:33.876Z,20.35
2019-04-22T00:22:02.826Z,19.82
2019-04-22T00:24:23.993Z,19.75
2019-04-22T00:26:59.581Z,18.92
2019-04-22T00:32:05.265Z,23.22
2019-04-22T00:34:40.878Z,21.95
2019-04-22T00:37:11.294Z,27.50
2019-04-22T00:39:40.899Z,42.90
2019-04-22T00:42:14.951Z,45.53
2019-04-22T00:44:45.207Z,45.12
2019-04-22T00:47:21.836Z,45.63
2019-04-22T00:54:48.968Z,41.90
2019-04-22T00:57:15.385Z,36.07
2019-04-22T00:59:50.960Z,36.38
2019-04-22T01:02:13.113Z,43.40
2019-04-22T01:04:48.888Z,39.75
2019-04-22T01:07:12.876Z,37.48
2019-04-22T01:09:46.423Z,35.70
2019-04-22T01:12:24.185Z,35.70
2019-04-22T01:14:47.768Z,36.23
2019-04-22T01:17:17.538Z,38.33
2019-04-22T01:19:52.607Z,35.50
2019-04-22T01:22:17.594Z,35.58
2019-04-22T01:24:46.719Z,38.33
2019-04-22T01:27:13.010Z,42.13
2019-04-22T01:29:42.335Z,42.78
2019-04-22T01:32:00.294Z,39.67
2019-04-22T01:34:48.820Z,35.10
2019-04-22T01:37:21.705Z,34.40
2019-04-22T01:39:59.014Z,37.75
2019-04-22T01:42:30.876Z,36.40
2019-04-22T01:44:53.357Z,36.33
2019-04-22T01:47:33.796Z,34.07
2019-04-22T01:50:03.903Z,31.93
2019-04-22T01:52:20.250Z,25.77
2019-04-22T01:54:55.221Z,26.23
2019-04-22T01:57:23.572Z,25.05
2019-04-22T01:59:53.489Z,26.10
2019-04-22T02:02:31.073Z,23.10
2019-04-22T02:05:01.255Z,22.73
2019-04-22T02:07:32.360Z,22.93
2019-04-22T02:10:04.017Z,20.37
2019-04-22T02:12:33.725Z,21.42
2019-04-22T02:14:58.103Z,21.23
2019-04-22T02:20:07.457Z,21.65
2019-04-22T02:22:50.823Z,21.42
2019-04-22T02:25:13.492Z,20.15
2019-04-22T02:27:43.190Z,18.75
2019-04-22T02:30:05.458Z,19.80
2019-04-22T02:32:49.146Z,19.17
2019-04-22T02:35:11.084Z,19.93
2019-04-22T02:37:35.331Z,19.82
2019-04-22T02:40:38.058Z,19.42
2019-04-22T02:42:35.136Z,19.73
2019-04-22T02:45:07.288Z,19.55
2019-04-22T02:47:36.469Z,20.48
2019-04-22T02:52:43.669Z,19.43
2019-04-22T02:55:20.955Z,21.02
2019-04-22T02:57:39.906Z,20.45
2019-04-22T03:02:50.588Z,21.70
2019-04-22T03:05:19.406Z,23.03
2019-04-22T03:07:50.664Z,24.92
2019-04-22T03:10:38.565Z,24.75
2019-04-22T03:15:17.241Z,28.20
2019-04-22T03:17:43.738Z,28.80
2019-04-22T03:20:09.216Z,29.55
2019-04-22T03:22:47.011Z,28.07
2019-04-22T03:27:42.737Z,31.40
2019-04-22T03:30:41.678Z,26.23
2019-04-22T03:47:53.754Z,21.95
2019-04-22T03:52:56.138Z,23.00
2019-04-22T03:57:50.005Z,25.92
2019-04-22T04:00:32.585Z,24.30
2019-04-22T04:02:56.030Z,24.77
2019-04-22T04:05:33.997Z,23.70
2019-04-22T04:07:57.783Z,24.63
2019-04-22T04:10:30.132Z,26.60
2019-04-22T04:15:32.790Z,28.15
2019-04-22T04:17:51.908Z,24.10
2019-04-22T04:20:37.291Z,25.02
2019-04-22T04:22:59.254Z,25.85
2019-04-22T04:25:32.112Z,24.60
2019-04-22T04:30:30.300Z,24.57
2019-04-22T04:37:55.733Z,23.77
2019-04-22T04:40:28.904Z,23.22
2019-04-22T04:42:56.638Z,23.77
2019-04-22T04:47:55.306Z,21.27
2019-04-22T04:58:09.041Z,22.87
2019-04-22T05:07:56.046Z,22.90
2019-04-22T05:10:53.707Z,23.23
2019-04-22T05:12:57.189Z,24.83
2019-04-22T05:15:27.337Z,26.00
2019-04-22T05:17:58.086Z,24.82
2019-04-22T05:20:33.862Z,26.80
2019-04-22T05:22:50.951Z,25.68
2019-04-22T05:25:25.458Z,27.73
2019-04-22T05:28:08.747Z,29.37
2019-04-22T05:35:26.578Z,30.23
2019-04-22T05:37:58.097Z,27.70
2019-04-22T05:40:24.435Z,28.10
2019-04-22T05:42:56.584Z,27.52
2019-04-22T05:50:36.759Z,28.57
2019-04-22T05:52:57.321Z,28.62
2019-04-22T05:55:30.524Z,27.07
2019-04-22T05:57:57.803Z,29.98
2019-04-22T06:05:32.921Z,33.77
2019-04-22T06:08:02.342Z,37.78
2019-04-22T06:13:00.873Z,26.45
2019-04-22T06:15:36.400Z,28.02
2019-04-22T06:20:38.637Z,29.50
2019-04-22T06:23:12.134Z,28.60
2019-04-22T06:26:14.809Z,26.85
2019-04-22T06:28:16.113Z,28.50
2019-04-22T06:30:43.501Z,26.62
2019-04-22T06:35:44.325Z,30.80
2019-04-22T06:38:28.605Z,29.47
2019-04-22T06:40:46.547Z,29.32
2019-04-22T06:43:17.625Z,29.27
2019-04-22T06:45:40.182Z,28.60
2019-04-22T06:50:41.655Z,29.85
2019-04-22T06:53:09.283Z,26.63
2019-04-22T06:55:47.019Z,26.07
2019-04-22T06:58:16.412Z,28.07
2019-04-22T07:05:48.910Z,25.68
2019-04-22T07:08:39.335Z,26.27
2019-04-22T07:10:50.324Z,27.15
2019-04-22T07:13:18.651Z,26.80
2019-04-22T07:20:53.730Z,26.77
2019-04-22T07:23:25.776Z,26.30
2019-04-22T07:25:45.478Z,25.35
2019-04-22T07:28:18.506Z,26.20
2019-04-22T07:30:44.723Z,24.43
2019-04-22T07:33:22.908Z,25.32
2019-04-22T07:38:25.723Z,25.30
2019-04-22T07:40:50.577Z,25.97
2019-04-22T07:43:32.503Z,24.80
2019-04-22T07:45:48.940Z,23.67
2019-04-22T07:48:35.690Z,25.17
2019-04-22T07:50:55.785Z,25.77
2019-04-22T07:53:19.591Z,26.87
2019-04-22T07:55:54.958Z,25.83
2019-04-22T07:58:27.399Z,26.02
2019-04-22T08:00:57.670Z,25.90
2019-04-22T08:03:30.839Z,26.42
2019-04-22T08:06:05.360Z,27.20
2019-04-22T08:08:29.252Z,24.70
2019-04-22T08:10:57.913Z,26.73
2019-04-22T08:13:31.302Z,25.57
2019-04-22T08:15:58.214Z,26.12
2019-04-22T08:18:28.996Z,24.60
2019-04-22T08:20:58.686Z,25.12
2019-04-22T08:23:33.596Z,25.03
2019-04-22T08:25:55.812Z,24.47
2019-04-22T08:28:34.474Z,22.77
2019-04-22T08:31:04.755Z,24.82
2019-04-22T08:38:35.432Z,22.73
2019-04-22T08:43:57.335Z,23.10
2019-04-22T08:46:28.538Z,32.30
2019-04-22T08:53:59.767Z,21.95
2019-04-22T08:56:31.013Z,23.40
2019-04-22T08:58:57.001Z,24.10
2019-04-22T09:01:23.879Z,23.83
2019-04-22T09:03:52.475Z,24.55
2019-04-22T09:06:29.905Z,25.10
2019-04-22T09:08:55.320Z,25.10
2019-04-22T09:11:27.177Z,23.98
2019-04-22T09:13:56.096Z,24.57
2019-04-22T09:16:27.913Z,26.07
2019-04-22T09:18:56.165Z,28.47
2019-04-22T09:21:38.887Z,25.40
2019-04-22T09:23:58.684Z,25.17
2019-04-22T09:26:30.727Z,22.00
2019-04-22T09:29:02.839Z,23.32
2019-04-22T09:31:24.232Z,20.45
2019-04-22T09:33:53.362Z,22.37
2019-04-22T09:36:29.573Z,19.87
2019-04-22T09:38:52.819Z,19.20
2019-04-22T09:41:27.760Z,20.60
2019-04-22T09:43:56.621Z,21.42
2019-04-22T09:46:33.091Z,16.77
2019-04-22T09:51:27.339Z,17.67
2019-04-22T09:56:32.183Z,19.07
2019-04-22T09:58:58.891Z,20.40
2019-04-22T10:01:42.196Z,20.12
2019-04-22T10:04:03.443Z,19.27
2019-04-22T10:11:34.054Z,22.37
2019-04-22T10:19:04.708Z,89.83
2019-04-22T10:21:40.279Z,36.83
2019-04-22T10:24:03.293Z,29.90
2019-04-22T10:29:05.933Z,28.45
2019-04-22T10:31:39.540Z,50.15
2019-04-22T10:33:53.710Z,26.60
2019-04-22T10:36:09.853Z,24.80
2019-04-22T10:38:38.372Z,23.27
2019-04-22T10:41:08.276Z,23.47
2019-04-22T10:43:37.148Z,22.67
2019-04-22T10:46:06.217Z,22.77
2019-04-22T10:48:34.937Z,20.15
2019-04-22T10:51:04.578Z,20.00
2019-04-22T10:53:33.495Z,19.90
2019-04-22T10:56:03.226Z,20.08
2019-04-22T10:58:32.908Z,19.07
2019-04-22T11:01:01.585Z,18.50
2019-04-22T11:03:31.138Z,18.42
2019-04-22T11:06:01.263Z,18.35
2019-04-22T11:08:40.254Z,18.82
2019-04-22T11:11:16.168Z,19.70
2019-04-22T11:13:33.624Z,16.23
2019-04-22T11:16:03.485Z,17.52
2019-04-22T11:18:33.637Z,12.23
2019-04-22T11:21:02.484Z,11.22
2019-04-22T11:23:32.277Z,10.93
2019-04-22T11:26:01.817Z,10.38
2019-04-22T11:28:31.847Z,9.55
2019-04-22T11:31:00.839Z,9.50
2019-04-22T11:33:30.347Z,7.15
2019-04-22T11:35:59.966Z,7.62
2019-04-22T11:38:28.821Z,14.07
2019-04-22T11:40:58.170Z,8.50
2019-04-22T11:43:30.466Z,5.65
2019-04-22T11:45:59.574Z,8.83
2019-04-22T11:48:29.379Z,8.80
2019-04-22T11:50:57.927Z,6.70
2019-04-22T11:53:27.310Z,6.25
2019-04-22T11:55:55.966Z,7.28
2019-04-22T11:58:24.688Z,7.97
2019-04-22T12:00:55.170Z,5.60
2019-04-22T12:03:25.151Z,5.60
2019-04-22T12:05:55.576Z,5.58
2019-04-22T12:08:25.032Z,5.77
2019-04-22T12:10:58.153Z,6.65
2019-04-22T12:13:24.215Z,6.33
2019-04-22T12:15:53.413Z,5.87
2019-04-22T12:18:22.898Z,4.85
2019-04-22T12:20:52.982Z,5.60
2019-04-22T12:23:22.918Z,5.60
2019-04-22T12:25:58.043Z,6.00
2019-04-22T12:28:23.235Z,5.23
2019-04-22T12:30:53.337Z,5.58
2019-04-22T12:33:23.512Z,5.33
2019-04-22T12:35:52.806Z,5.00
2019-04-22T12:38:22.098Z,5.20
2019-04-22T12:40:56.423Z,4.80
2019-04-22T12:43:23.711Z,5.97
2019-04-22T12:45:52.114Z,5.28
2019-04-22T12:48:21.349Z,5.00
2019-04-22T12:50:52.238Z,5.35
2019-04-22T12:53:22.574Z,5.50
2019-04-22T12:55:50.576Z,6.30
2019-04-22T12:58:20.674Z,5.35
2019-04-22T13:00:52.776Z,5.60
2019-04-22T13:03:22.318Z,5.30
2019-04-22T13:05:51.468Z,5.03
2019-04-22T13:08:20.150Z,4.87
2019-04-22T13:10:55.453Z,6.22
2019-04-22T13:13:19.009Z,5.37
2019-04-22T13:15:48.947Z,5.03
2019-04-22T13:18:27.691Z,5.95
2019-04-22T13:20:48.628Z,5.60
2019-04-22T13:23:18.024Z,4.28
2019-04-22T13:25:47.232Z,4.45
2019-04-22T13:28:15.819Z,4.80
2019-04-22T13:30:44.450Z,4.72
2019-04-22T13:33:12.927Z,4.70
2019-04-22T13:35:41.666Z,4.87
2019-04-22T13:38:11.082Z,5.50
2019-04-22T13:40:55.857Z,5.05
2019-04-22T13:43:13.228Z,4.50
2019-04-22T13:45:41.926Z,3.10
2019-04-22T13:48:28.804Z,3.87
2019-04-22T13:51:13.237Z,4.50
2019-04-22T13:53:46.166Z,3.00
2019-04-22T13:56:03.543Z,4.37
2019-04-22T13:58:29.076Z,3.50
2019-04-22T14:00:44.612Z,3.50
2019-04-22T14:03:24.623Z,3.30
2019-04-22T14:05:55.190Z,3.65
2019-04-22T14:08:24.950Z,3.17
2019-04-22T14:10:54.416Z,3.83
2019-04-22T14:13:23.866Z,2.30
2019-04-22T14:15:52.949Z,2.70
2019-04-22T14:18:23.119Z,2.77
2019-04-22T14:20:51.781Z,2.27
2019-04-22T14:23:20.529Z,3.35
2019-04-22T14:25:50.824Z,3.47
2019-04-22T14:28:22.906Z,3.72
2019-04-22T14:30:50.614Z,3.20
2019-04-22T14:33:20.255Z,3.85
2019-04-22T14:35:49.970Z,4.70
2019-04-22T14:38:18.507Z,2.72
2019-04-22T14:40:48.250Z,3.10
2019-04-22T14:43:44.879Z,3.02
2019-04-22T14:46:15.460Z,4.42
2019-04-22T14:48:46.023Z,3.42
2019-04-22T14:51:08.435Z,3.77
2019-04-22T14:53:43.389Z,2.98
2019-04-22T14:55:50.484Z,4.00
2019-04-22T14:58:19.250Z,3.45
2019-04-22T15:00:51.941Z,4.58
2019-04-22T15:03:21.752Z,3.22
2019-04-22T15:05:50.523Z,4.65
2019-04-22T15:08:19.224Z,4.42
2019-04-22T15:10:49.998Z,4.33
2019-04-22T15:13:18.511Z,4.27
2019-04-22T15:16:03.100Z,2.83
2019-04-22T15:18:35.779Z,4.40
2019-04-22T15:21:12.497Z,4.72
2019-04-22T15:23:42.602Z,4.30
2019-04-22T15:26:12.486Z,3.57
2019-04-22T15:28:41.773Z,3.87
2019-04-22T15:31:11.180Z,4.47
2019-04-22T15:33:39.745Z,4.87
2019-04-22T15:36:10.135Z,5.28
2019-04-22T15:38:38.675Z,4.42
2019-04-22T15:41:07.279Z,4.25
2019-04-22T15:43:37.176Z,4.53
2019-04-22T15:46:05.858Z,3.77
2019-04-22T15:48:35.974Z,4.62
2019-04-22T15:51:06.688Z,4.90
2019-04-22T15:53:35.791Z,5.12
2019-04-22T15:56:05.092Z,4.87
2019-04-22T15:58:33.644Z,5.78
2019-04-22T16:01:10.756Z,5.00
2019-04-22T16:03:32.477Z,5.72
2019-04-22T16:06:02.140Z,6.30
2019-04-22T16:08:33.570Z,5.78
2019-04-22T16:11:02.024Z,5.50
2019-04-22T16:13:33.941Z,5.55
2019-04-22T16:16:00.861Z,6.40
2019-04-22T16:18:30.598Z,5.50
2019-04-22T16:21:00.230Z,5.00
2019-04-22T16:23:36.599Z,5.17
2019-04-22T16:26:07.575Z,4.90
2019-04-22T16:28:37.630Z,5.33
2019-04-22T16:31:07.205Z,5.83
2019-04-22T16:33:39.713Z,5.10
2019-04-22T16:36:07.127Z,4.33
2019-04-22T16:38:37.318Z,4.70
2019-04-22T16:41:06.620Z,3.72
2019-04-22T16:43:36.489Z,12.35
2019-04-22T16:46:05.806Z,16.07
2019-04-22T16:48:35.750Z,8.85
2019-04-22T16:51:06.285Z,7.42
2019-04-22T16:53:35.143Z,7.58
2019-04-22T16:56:05.056Z,7.40
2019-04-22T16:58:34.726Z,7.20
2019-04-22T17:01:05.166Z,6.75
2019-04-22T17:03:36.558Z,6.40
2019-04-22T17:06:10.016Z,6.12
2019-04-22T17:08:39.105Z,6.12
2019-04-22T17:11:07.657Z,6.62
2019-04-22T17:13:38.065Z,6.30
2019-04-22T17:16:07.134Z,6.60
2019-04-22T17:18:37.095Z,7.05
2019-04-22T17:21:08.459Z,6.05
2019-04-22T17:23:37.903Z,8.25
2019-04-22T17:26:08.280Z,7.85
2019-04-22T17:28:37.453Z,8.07
2019-04-22T17:31:06.696Z,8.80
2019-04-22T17:33:35.336Z,9.28
2019-04-22T17:36:05.392Z,9.65
2019-04-22T17:38:45.505Z,9.45
2019-04-22T17:41:18.711Z,6.08
2019-04-22T17:43:59.069Z,9.43
2019-04-22T17:46:27.271Z,11.35
2019-04-22T17:49:04.296Z,9.50
2019-04-22T17:51:53.507Z,9.53
2019-04-22T17:54:19.181Z,13.88
2019-04-22T17:56:40.018Z,14.03
2019-04-22T17:59:03.940Z,12.88
2019-04-22T18:01:35.587Z,10.38
2019-04-22T18:03:51.583Z,10.15
2019-04-22T18:06:45.221Z,10.03
2019-04-22T18:09:05.094Z,11.03
2019-04-22T18:11:48.303Z,10.70
2019-04-22T18:14:26.116Z,9.98
2019-04-22T18:16:37.235Z,8.73
2019-04-22T18:19:10.087Z,11.85
2019-04-22T18:21:35.051Z,18.85
2019-04-22T18:23:55.470Z,16.67
2019-04-22T18:26:35.744Z,12.50
2019-04-22T18:29:07.513Z,11.90
2019-04-22T18:31:32.979Z,9.17
2019-04-22T18:34:04.751Z,9.05
2019-04-22T18:36:37.632Z,9.35
2019-04-22T18:39:21.305Z,10.98
2019-04-22T18:41:40.597Z,9.43
2019-04-22T18:44:17.982Z,8.65
2019-04-22T18:46:42.615Z,10.40
2019-04-22T18:49:12.387Z,10.70
2019-04-22T18:51:46.242Z,11.45
2019-04-22T18:54:28.851Z,10.98
2019-04-22T18:56:50.774Z,10.35
2019-04-22T18:59:12.371Z,9.18
2019-04-22T19:01:33.726Z,9.10
2019-04-22T19:04:12.630Z,10.40
2019-04-22T19:06:56.488Z,7.95
2019-04-22T19:09:31.656Z,9.58
2019-04-22T19:14:24.285Z,9.83
2019-04-22T19:17:07.909Z,9.65
2019-04-22T19:19:43.254Z,7.37
2019-04-22T19:21:57.732Z,10.98
2019-04-22T19:24:22.837Z,11.30
2019-04-22T19:26:58.755Z,11.43
2019-04-22T19:29:31.683Z,11.70
2019-04-22T19:31:57.056Z,12.03
2019-04-22T19:34:25.083Z,12.33
2019-04-22T19:36:56.246Z,13.20
2019-04-22T19:39:25.047Z,12.57
2019-04-22T19:42:01.896Z,13.85
2019-04-22T19:44:30.863Z,13.55
2019-04-22T19:47:21.190Z,12.80
2019-04-22T19:49:38.387Z,13.43
2019-04-22T19:54:32.350Z,14.23
2019-04-22T19:56:57.422Z,13.13
2019-04-22T19:59:32.289Z,11.97
2019-04-22T20:02:22.210Z,11.97
2019-04-22T20:05:11.027Z,11.60
2019-04-22T20:07:38.536Z,11.33
2019-04-22T20:10:17.256Z,11.05
2019-04-22T20:12:46.747Z,11.35
2019-04-22T20:15:09.980Z,11.38
2019-04-22T20:17:57.335Z,12.10
2019-04-22T20:20:17.880Z,11.30
2019-04-22T20:22:44.479Z,11.15
2019-04-22T20:25:06.543Z,11.22
2019-04-22T20:27:47.539Z,10.90
2019-04-22T20:30:17.368Z,11.22
2019-04-22T20:32:41.373Z,10.03
2019-04-22T20:35:24.512Z,10.30
2019-04-22T20:37:54.969Z,10.50
2019-04-22T20:40:18.043Z,10.67
2019-04-22T20:42:55.281Z,10.53
2019-04-22T20:45:29.175Z,9.78
2019-04-22T20:47:42.603Z,9.90
2019-04-22T20:50:21.802Z,9.40
2019-04-22T20:52:55.575Z,9.78
2019-04-22T20:55:17.659Z,10.35
2019-04-22T20:57:53.581Z,10.25
2019-04-22T21:00:15.180Z,10.03
2019-04-22T21:02:45.490Z,9.25
2019-04-22T21:05:18.008Z,9.45
2019-04-22T21:07:47.947Z,15.33
2019-04-22T21:10:19.875Z,11.75
2019-04-22T21:12:41.780Z,16.48
2019-04-22T21:15:26.423Z,15.83
2019-04-22T21:17:54.444Z,10.10
2019-04-22T21:20:28.651Z,11.97
2019-04-22T21:22:51.147Z,12.90
2019-04-22T21:25:16.788Z,12.07
2019-04-22T21:27:56.535Z,10.73
2019-04-22T21:30:26.472Z,10.90
2019-04-22T21:32:54.845Z,10.28
2019-04-22T21:35:40.426Z,8.55
2019-04-22T21:38:02.654Z,8.25
2019-04-22T21:40:30.487Z,8.30
2019-04-22T21:42:59.742Z,4.93
2019-04-22T21:45:23.783Z,7.84
2019-04-22T21:48:13.773Z,7.72
2019-04-22T21:50:41.566Z,8.30
2019-04-22T21:53:12.796Z,8.07
2019-04-22T21:55:37.395Z,7.60
2019-04-22T21:58:27.922Z,8.43
2019-04-22T22:03:18.949Z,8.05
2019-04-22T22:05:39.775Z,7.30
2019-04-22T22:08:22.910Z,7.45
2019-04-22T22:10:45.279Z,6.62
2019-04-22T22:13:16.941Z,8.13
2019-04-22T22:15:49.283Z,8.30
2019-04-22T22:18:12.926Z,7.78
2019-04-22T22:20:59.827Z,7.62
2019-04-22T22:23:26.946Z,7.33
2019-04-22T22:25:43.753Z,8.10
2019-04-22T22:28:33.181Z,8.50
2019-04-22T22:31:08.862Z,8.58
2019-04-22T22:33:16.734Z,8.65
2019-04-22T22:35:45.732Z,9.45
2019-04-22T22:38:19.166Z,8.50
2019-04-22T22:40:32.832Z,7.85
2019-04-22T22:43:05.412Z,8.10
2019-04-22T22:45:37.004Z,6.20
2019-04-22T22:48:39.792Z,7.33
2019-04-22T22:50:48.923Z,7.22
2019-04-22T22:53:29.089Z,9.28
2019-04-22T22:55:53.179Z,7.80
2019-04-22T22:58:24.567Z,8.18
2019-04-22T23:00:44.076Z,7.03
2019-04-22T23:03:41.758Z,7.75
2019-04-22T23:06:00.533Z,7.17
2019-04-22T23:08:25.755Z,6.90
2019-04-22T23:11:00.792Z,7.55
2019-04-22T23:13:28.187Z,7.25
2019-04-22T23:15:46.658Z,7.08
2019-04-22T23:18:03.795Z,7.00
2019-04-22T23:20:37.590Z,7.12
2019-04-22T23:23:22.444Z,7.47
2019-04-22T23:26:03.835Z,8.10
2019-04-22T23:28:28.071Z,7.40
2019-04-22T23:31:09.593Z,7.65
2019-04-22T23:33:47.629Z,7.30
2019-04-22T23:36:19.161Z,7.90
2019-04-22T23:39:02.359Z,7.47
2019-04-22T23:46:41.512Z,7.33
2019-04-22T23:49:11.686Z,6.10
2019-04-22T23:51:55.491Z,6.90
2019-04-22T23:54:24.567Z,6.63
2019-04-22T23:56:49.435Z,6.53
